Airfield :
LOGIN :

Register | Disclaimer

   EN    FR    IT 

 










Legend :    VFR   Marginal VFR   IFR   Intensive IFR   Very Intensive IFR
Visi :
Ceiling :
>= 8 km
>= 3000ft
5 to 8 km
1000 to 3000 ft
1500m to 5 km
500 to 1000 ft
800 to 1500m
200 to 500 ft
< 800m
< 200 ft
Symbols :   Thunderstorms  Fog  Heavy snow  Heavy precipitations  Wind > 20 kt
SIGMETs :     Misc.  Thunderstorms  Icing  Turbulence  Mountain Waves  Volcanic Ashes







- Airport Elevation : 56 ft
- IATA code : ILY
- Download approach charts


EGPI - Islay

CURRENT METAR :
  • 231350Z 34019KT 310V010 9999 FEW030 BKN043 12/07 Q1025

EXPIRED METARs :
  • 231320Z 32017KT 9999 FEW025CB SCT029 11/06 Q1024
  • 231250Z 33017KT 300V360 9999 VCSH FEW027CB SCT032 11/06 Q1024
  • 231220Z 32017KT 290V360 9999 FEW027CB 11/07 Q1023 RESHRA
  • 231150Z AUTO 31015KT 9999 FEW039/// 12/08 Q1023 RERA
  • 231120Z AUTO 33013KT 300V360 9999 FEW027/// 10/07 Q1023 RERA

TAF TAF EGPI
Valid from the 23 at 12:00 until the 23 at 18:00 UTC


231058Z 2312/2318 33015KT 9999 FEW030
TEMPO 2312/2318 34020G30KT 6000 SHRA BKN014 BKN030CB
No reported NOTAMs for that airfield.



MET'MAP, your aeronautical weather chart ! - Copyright ORBIFLY December 2007 - Disclaimer

ORBIFLY MET'MAP TEAM :

Programming & Development : Alexandra Zaïnal
Concept & Development : Baudouin d'Aumeries
Co-Development & Prog : Marc-Olivier Méhu
Technical & hardware support : Manuel Goepfert

Contact : metmap@orbifly.com




SOURCES & CREDITS :

   NOAA